Time;durP1;ratioP1;P1;durP2;ratioP2;P2;SDS_P1;SDS_P2;PMS_P1;PMS_P2;Temp;Humidity;BMP_temperature;BMP_pressure;BME280_temperature;BME280_humidity;BME280_pressure;Samples;Min_cycle;Max_cycle;Signal;HPM_P1;HPM_P2
2024/04/20 00:01:00;;;;;;;;;;;7.80;99.90;;;8.14;71.87;100211.34;5528661;26;19994;-86
2024/04/20 00:03:29;;;;;;;;;;;7.80;99.90;;;8.13;72.40;100212.38;5528605;25;19927;-85
2024/04/20 00:05:57;;;;;;;;;;;7.80;99.90;;;8.14;72.06;100214.84;5528503;26;19934;-85
2024/04/20 00:08:26;;;;;;;;;;;7.80;99.90;;;8.15;72.45;100213.84;5527474;25;20003;-86
2024/04/20 00:10:55;;;;;;;;;;;7.80;99.90;;;8.16;72.26;100212.81;5498887;26;19934;-86
2024/04/20 00:13:26;;;;;;;;;;;7.80;99.90;;;8.15;72.36;100221.81;5528516;26;19927;-84
2024/04/20 00:15:55;;;;;;;;;;;7.80;99.90;;;8.12;71.75;100221.38;5512964;26;19963;-85
2024/04/20 00:18:24;;;;;;;;;;;7.80;99.90;;;8.05;72.14;100229.31;5504786;26;19928;-86
2024/04/20 00:20:52;;;;;;;;;;;7.70;99.90;;;8.06;71.98;100233.63;5498214;26;19953;-85
2024/04/20 00:23:21;;;;;;;;;;;7.70;99.90;;;8.08;71.96;100236.06;5528053;26;19943;-86
2024/04/20 00:25:50;;;;;;;;;;;7.70;99.90;;;8.09;71.74;100233.22;5528732;26;19927;-84
2024/04/20 00:28:19;;;;;;;;;;;7.70;99.90;;;8.07;71.60;100237.09;5507160;25;19927;-85
2024/04/20 00:30:58;;;;;;;;;;;7.70;99.90;;;8.02;71.42;100239.53;5525356;26;19927;-85
2024/04/20 00:33:27;;;;;;;;;;;7.60;99.90;;;8.02;71.87;100236.88;5528331;25;19927;-86
2024/04/20 00:35:56;;;;;;;;;;;7.60;99.90;;;7.98;71.71;100242.59;5528282;26;20275;-85
2024/04/20 00:38:25;;;;;;;;;;;7.60;99.90;;;8.00;72.06;100250.34;5510140;25;19928;-86
2024/04/20 00:40:53;;;;;;;;;;;7.60;99.90;;;7.99;72.26;100246.88;5517911;26;20383;-85
2024/04/20 00:43:22;;;;;;;;;;;7.60;99.90;;;7.98;72.30;100255.03;5528053;26;19927;-86
2024/04/20 00:45:54;;;;;;;;;;;7.60;99.90;;;7.95;72.13;100247.47;5542281;25;19999;-85
2024/04/20 00:48:24;;;;;;;;;;;7.50;99.90;;;7.94;72.36;100251.97;5528479;26;19931;-85
2024/04/20 00:50:54;;;;;;;;;;;7.50;99.90;;;7.93;72.32;100255.63;5498654;26;19935;-85
2024/04/20 00:53:24;;;;;;;;;;;7.50;99.90;;;7.97;72.06;100254.22;5527356;25;19934;-86
2024/04/20 00:55:53;;;;;;;;;;;7.60;99.90;;;7.93;71.86;100262.78;5528467;26;19939;-84
2024/04/20 00:58:22;;;;;;;;;;;7.50;99.90;;;7.87;72.22;100259.09;5527753;26;20263;-85
2024/04/20 01:00:54;;;;;;;;;;;7.50;99.90;;;7.89;71.86;100258.88;5526000;26;19960;-86
2024/04/20 01:03:26;;;;;;;;;;;7.50;99.90;;;7.89;71.97;100264.19;5527885;26;20009;-86
2024/04/20 01:05:55;;;;;;;;;;;7.50;99.90;;;7.88;72.23;100266.03;5527862;26;19934;-85
2024/04/20 01:08:23;;;;;;;;;;;7.50;99.90;;;7.90;72.18;100273.78;5527219;26;19927;-85
2024/04/20 01:10:53;;;;;;;;;;;7.50;99.90;;;7.88;72.44;100271.34;5497611;26;19934;-86
2024/04/20 01:13:27;;;;;;;;;;;7.50;99.90;;;7.88;72.88;100274.00;5514110;26;19928;-86
2024/04/20 01:15:59;;;;;;;;;;;7.50;99.90;;;7.89;73.05;100278.28;5527683;26;19934;-85
2024/04/20 01:18:28;;;;;;;;;;;7.50;99.90;;;7.89;72.79;100277.47;5527409;26;19938;-84
2024/04/20 01:20:56;;;;;;;;;;;7.50;99.90;;;7.91;72.86;100283.44;5527053;26;19939;-85
2024/04/20 01:23:26;;;;;;;;;;;7.50;99.90;;;7.94;73.17;100283.81;5527903;25;19968;-85
2024/04/20 01:25:57;;;;;;;;;;;7.60;99.90;;;7.95;72.77;100288.13;5526000;26;19931;-84
2024/04/20 01:28:26;;;;;;;;;;;7.60;99.90;;;7.94;72.76;100285.66;5527483;26;19938;-86
2024/04/20 01:30:55;;;;;;;;;;;7.60;99.90;;;7.94;72.80;100293.63;5497476;26;20387;-85
2024/04/20 01:33:27;;;;;;;;;;;7.60;99.90;;;7.96;72.61;100288.97;5524777;26;19928;-86
2024/04/20 01:35:53;;;;;;;;;;;7.60;99.90;;;7.85;72.56;100298.28;5527434;25;20001;-85
2024/04/20 01:38:22;;;;;;;;;;;7.50;99.90;;;7.84;72.64;100303.81;5527983;25;19928;-86
2024/04/20 01:40:50;;;;;;;;;;;7.40;99.90;;;7.85;72.71;100303.59;5525855;26;19927;-85
2024/04/20 01:43:23;;;;;;;;;;;7.50;99.90;;;7.85;72.89;100303.59;5527543;25;19927;-86
2024/04/20 01:45:52;;;;;;;;;;;7.40;99.90;;;7.85;73.25;100305.44;5526600;26;19931;-84
2024/04/20 01:48:21;;;;;;;;;;;7.40;99.90;;;7.87;72.62;100311.38;5519266;26;19935;-86
2024/04/20 01:50:49;;;;;;;;;;;7.40;99.90;;;7.85;72.91;100310.75;5527433;26;19927;-85
2024/04/20 01:53:18;;;;;;;;;;;7.50;99.90;;;7.87;73.15;100314.03;5525957;26;19932;-86
2024/04/20 01:55:47;;;;;;;;;;;7.50;99.90;;;7.87;73.06;100314.03;5526885;25;19927;-85
2024/04/20 01:58:16;;;;;;;;;;;7.50;99.90;;;7.84;72.85;100314.41;5527075;26;19954;-85
2024/04/20 02:00:47;;;;;;;;;;;7.50;99.90;;;7.84;73.52;100325.03;5526405;25;20039;-85
2024/04/20 02:03:16;;;;;;;;;;;7.50;99.90;;;7.87;73.35;100324.66;5526359;26;19934;-85
2024/04/20 02:05:44;;;;;;;;;;;7.50;99.90;;;7.88;73.51;100328.94;5526868;25;19934;-85
2024/04/20 02:08:15;;;;;;;;;;;7.50;99.90;;;7.87;73.27;100337.94;5526441;25;20283;-85
2024/04/20 02:10:44;;;;;;;;;;;7.50;99.90;;;7.85;73.39;100338.09;5526700;25;19927;-85
2024/04/20 02:13:13;;;;;;;;;;;7.50;99.90;;;7.85;73.73;100334.63;5526125;26;19931;-85
2024/04/20 02:15:41;;;;;;;;;;;7.50;99.90;;;7.86;73.43;100336.31;5526356;25;19946;-86
2024/04/20 02:18:11;;;;;;;;;;;7.50;99.90;;;7.76;73.56;100344.63;5526494;25;20439;-85
2024/04/20 02:20:39;;;;;;;;;;;7.50;99.90;;;7.77;74.08;100343.59;5524402;26;19940;-86
2024/04/20 02:23:09;;;;;;;;;;;7.40;99.90;;;7.80;74.16;100342.38;5526401;25;19928;-85
2024/04/20 02:25:38;;;;;;;;;;;7.50;99.90;;;7.77;74.02;100340.13;5525678;25;19948;-86
2024/04/20 02:28:08;;;;;;;;;;;7.40;99.90;;;7.80;73.98;100342.38;5513373;25;19927;-84
2024/04/20 02:30:36;;;;;;;;;;;7.40;99.90;;;7.82;73.56;100337.72;5526072;25;20008;-84
2024/04/20 02:33:05;;;;;;;;;;;7.50;99.90;;;7.79;73.89;100346.88;5526240;26;19935;-86
2024/04/20 02:35:40;;;;;;;;;;;7.40;99.90;;;7.77;73.98;100348.91;5524661;25;19995;-86
2024/04/20 02:38:08;;;;;;;;;;;7.40;99.90;;;7.72;74.12;100349.50;5527362;26;19934;-85
2024/04/20 02:40:37;;;;;;;;;;;7.40;99.90;;;7.74;73.70;100355.41;5528949;26;19931;-85
2024/04/20 02:43:07;;;;;;;;;;;7.40;99.90;;;7.74;73.37;100344.78;5529873;25;19927;-85
2024/04/20 02:45:35;;;;;;;;;;;7.40;99.90;;;7.74;73.19;100358.06;5530000;26;19934;-86
2024/04/20 02:48:04;;;;;;;;;;;7.40;99.90;;;7.69;73.29;100363.16;5529805;26;19927;-85
2024/04/20 02:50:33;;;;;;;;;;;7.30;99.90;;;7.69;73.35;100363.16;5529806;26;19939;-85
2024/04/20 02:53:05;;;;;;;;;;;7.30;99.90;;;7.72;73.69;100367.25;5529895;26;19935;-86
2024/04/20 02:55:33;;;;;;;;;;;7.40;99.90;;;7.71;73.32;100355.81;5528896;25;19934;-86
2024/04/20 02:58:02;;;;;;;;;;;7.40;99.90;;;7.70;73.81;100367.44;5529799;25;19928;-86
2024/04/20 03:00:31;;;;;;;;;;;7.30;99.90;;;7.67;73.45;100364.38;5532129;25;19935;-86
2024/04/20 03:03:00;;;;;;;;;;;7.30;99.90;;;7.67;73.75;100359.06;5529633;26;20379;-85
2024/04/20 03:05:29;;;;;;;;;;;7.30;99.90;;;7.66;73.97;100370.66;5529439;25;19975;-85
2024/04/20 03:07:57;;;;;;;;;;;7.30;99.90;;;7.67;73.99;100373.16;5529276;25;19931;-85
2024/04/20 03:10:29;;;;;;;;;;;7.30;99.90;;;7.68;73.72;100374.78;5511473;25;19932;-86
2024/04/20 03:12:58;;;;;;;;;;;7.30;99.90;;;7.70;73.63;100383.34;5529455;25;20021;-86
2024/04/20 03:15:27;;;;;;;;;;;7.30;99.90;;;7.69;73.79;100384.38;5515902;25;20500;-85
2024/04/20 03:17:55;;;;;;;;;;;7.30;99.90;;;7.70;73.69;100377.22;5521070;26;19934;-85
2024/04/20 03:20:24;;;;;;;;;;;7.40;99.90;;;7.69;73.08;100387.03;5522204;26;19934;-85
2024/04/20 03:22:53;;;;;;;;;;;7.40;99.90;;;7.70;73.05;100391.31;5499277;26;19953;-86
2024/04/20 03:25:22;;;;;;;;;;;7.40;99.90;;;7.71;73.24;100394.78;5527802;26;20263;-85
2024/04/20 03:27:53;;;;;;;;;;;7.30;99.90;;;7.67;73.08;100397.03;5529429;26;19927;-84
2024/04/20 03:30:22;;;;;;;;;;;7.30;99.90;;;7.67;73.46;100396.22;5528915;26;20270;-86
2024/04/20 03:32:51;;;;;;;;;;;7.30;99.90;;;7.69;73.44;100399.50;5529102;26;19927;-86
2024/04/20 03:35:19;;;;;;;;;;;7.30;99.90;;;7.68;73.21;100405.81;5527150;25;19952;-86
2024/04/20 03:37:48;;;;;;;;;;;7.30;99.90;;;7.65;73.00;100411.50;5528924;26;19928;-85
2024/04/20 03:40:18;;;;;;;;;;;7.30;99.90;;;7.61;73.37;100410.25;5520570;26;19955;-86
2024/04/20 03:42:46;;;;;;;;;;;7.20;99.90;;;7.60;73.29;100409.44;5528753;25;19946;-86
2024/04/20 03:45:18;;;;;;;;;;;7.20;99.90;;;7.61;73.52;100421.72;5526975;25;19953;-85
2024/04/20 03:47:47;;;;;;;;;;;7.20;99.90;;;7.63;73.87;100426.81;5527152;26;19939;-85
2024/04/20 03:50:16;;;;;;;;;;;7.20;99.90;;;7.64;73.06;100426.59;5528702;25;20000;-85
2024/04/20 03:52:47;;;;;;;;;;;7.20;99.90;;;7.62;73.23;100433.97;5527762;26;19935;-85
2024/04/20 03:55:18;;;;;;;;;;;7.20;99.90;;;7.61;73.30;100427.00;5525850;25;19927;-85
2024/04/20 03:57:47;;;;;;;;;;;7.20;99.90;;;7.60;73.67;100425.34;5526899;26;19967;-86
2024/04/20 04:00:18;;;;;;;;;;;7.20;99.90;;;7.60;73.79;100435.16;5528649;25;19927;-85
2024/04/20 04:02:47;;;;;;;;;;;7.20;99.90;;;7.59;73.63;100436.16;5528239;25;20387;-85
2024/04/20 04:05:16;;;;;;;;;;;7.20;99.90;;;7.57;73.50;100433.72;5526715;25;20268;-86
2024/04/20 04:07:45;;;;;;;;;;;7.20;99.90;;;7.59;73.92;100442.28;5527556;25;19928;-85
2024/04/20 04:10:14;;;;;;;;;;;7.30;99.90;;;7.58;73.73;100445.16;5528867;25;19934;-85
2024/04/20 04:12:42;;;;;;;;;;;7.20;99.90;;;7.60;73.61;100446.59;5528678;26;19936;-85
2024/04/20 04:15:11;;;;;;;;;;;7.30;99.90;;;7.58;73.81;100445.97;5526603;25;19927;-86
2024/04/20 04:17:44;;;;;;;;;;;7.30;99.90;;;7.57;73.49;100456.78;5515588;26;21088;-85
2024/04/20 04:20:13;;;;;;;;;;;7.30;99.90;;;7.59;73.53;100462.72;5529255;25;20275;-86
2024/04/20 04:22:42;;;;;;;;;;;7.30;99.90;;;7.61;73.71;100468.63;5514709;25;19935;-83
2024/04/20 04:25:11;;;;;;;;;;;7.30;99.90;;;7.63;73.92;100466.63;5530059;25;19934;-83
2024/04/20 04:27:39;;;;;;;;;;;7.30;99.90;;;7.64;73.86;100469.06;5530074;25;19934;-84
2024/04/20 04:30:09;;;;;;;;;;;7.30;99.90;;;7.63;73.64;100474.59;5521029;25;19927;-84
2024/04/20 04:32:38;;;;;;;;;;;7.30;99.90;;;7.65;73.94;100475.19;5530296;26;19927;-83
2024/04/20 04:35:10;;;;;;;;;;;7.30;99.90;;;7.69;73.89;100476.47;5528938;25;19939;-83
2024/04/20 04:37:38;;;;;;;;;;;7.40;99.90;;;7.68;73.85;100477.50;5529486;26;20387;-84
2024/04/20 04:40:12;;;;;;;;;;;7.40;99.90;;;7.68;73.83;100482.78;5528283;26;19991;-85
2024/04/20 04:42:41;;;;;;;;;;;7.30;99.90;;;7.70;73.85;100483.41;5510164;25;19928;-84
2024/04/20 04:45:10;;;;;;;;;;;7.40;99.90;;;7.70;74.10;100483.41;5530182;25;19934;-84
2024/04/20 04:47:39;;;;;;;;;;;7.40;99.90;;;7.72;74.32;100489.38;5530654;25;19934;-84
2024/04/20 04:50:11;;;;;;;;;;;7.40;99.90;;;7.73;74.16;100491.81;5528661;25;19954;-86
2024/04/20 04:52:39;;;;;;;;;;;7.40;99.90;;;7.73;74.01;100496.31;5528308;26;19939;-84
2024/04/20 04:55:08;;;;;;;;;;;7.40;99.90;;;7.73;74.31;100501.63;5527049;26;19938;-85
2024/04/20 04:57:37;;;;;;;;;;;7.40;99.90;;;7.74;74.27;100501.41;5528614;26;19934;-87
2024/04/20 05:00:07;;;;;;;;;;;7.50;99.90;;;7.77;73.84;100513.50;5528453;25;20004;-85
2024/04/20 05:02:36;;;;;;;;;;;7.50;99.90;;;7.79;74.07;100510.66;5526511;26;19935;-84
2024/04/20 05:05:08;;;;;;;;;;;7.50;99.90;;;7.77;73.87;100512.69;5529839;25;19931;-84
2024/04/20 05:07:39;;;;;;;;;;;7.50;99.90;;;7.76;73.88;100517.19;5530381;25;20391;-85
2024/04/20 05:10:08;;;;;;;;;;;7.50;99.90;;;7.74;73.70;100509.38;5526738;26;19936;-84
2024/04/20 05:12:37;;;;;;;;;;;7.50;99.90;;;7.77;73.65;100518.00;5526891;26;20278;-84
2024/04/20 05:15:06;;;;;;;;;;;7.50;99.90;;;7.77;73.83;100523.31;5530414;25;20307;-85
2024/04/20 05:17:37;;;;;;;;;;;7.50;99.90;;;7.76;73.53;100522.50;5518638;25;19927;-84
2024/04/20 05:20:12;;;;;;;;;;;7.50;99.90;;;7.75;73.61;100523.47;5530144;25;19927;-85
2024/04/20 05:22:43;;;;;;;;;;;7.50;99.90;;;7.78;73.76;100523.09;5529824;26;19955;-84
2024/04/20 05:25:12;;;;;;;;;;;7.50;99.90;;;7.80;73.90;100528.22;5512122;26;20427;-85
2024/04/20 05:27:41;;;;;;;;;;;7.50;99.90;;;7.77;73.91;100524.13;5510685;26;19935;-85
2024/04/20 05:30:11;;;;;;;;;;;7.50;99.90;;;7.75;73.87;100531.44;5530117;26;19938;-85
2024/04/20 05:32:40;;;;;;;;;;;7.60;99.90;;;7.74;74.06;100535.94;5528239;26;19955;-85
2024/04/20 05:35:09;;;;;;;;;;;7.40;99.90;;;7.74;74.65;100543.06;5527011;25;19934;-85
2024/04/20 05:37:38;;;;;;;;;;;7.40;99.90;;;7.70;74.42;100547.13;5528589;25;19933;-84
2024/04/20 05:40:11;;;;;;;;;;;7.40;99.90;;;7.68;74.63;100539.34;5509273;26;19935;-87
2024/04/20 05:42:40;;;;;;;;;;;7.40;99.90;;;7.73;75.00;100547.56;5506448;26;19928;-87
2024/04/20 05:45:09;;;;;;;;;;;7.50;99.90;;;7.78;74.75;100549.66;5525796;25;20282;-88
2024/04/20 05:47:38;;;;;;;;;;;7.50;99.90;;;7.82;75.23;100555.41;5527739;26;20395;-87
2024/04/20 05:50:08;;;;;;;;;;;7.60;99.90;;;7.82;75.15;100564.19;5528676;26;19935;-85
2024/04/20 05:52:37;;;;;;;;;;;7.50;99.90;;;7.84;75.60;100564.00;5528872;26;19935;-87
2024/04/20 05:55:07;;;;;;;;;;;7.60;99.90;;;7.84;75.23;100571.97;5526781;26;19939;-85
2024/04/20 05:57:38;;;;;;;;;;;7.60;99.90;;;7.81;75.42;100569.66;5532172;25;20279;-86
2024/04/20 06:00:06;;;;;;;;;;;7.70;99.90;;;7.83;75.13;100568.47;5528834;26;19940;-85
2024/04/20 06:02:41;;;;;;;;;;;7.60;99.90;;;7.82;75.01;100576.66;5529930;26;19995;-85
2024/04/20 06:05:09;;;;;;;;;;;7.60;99.90;;;7.88;74.85;100584.66;5530519;25;19928;-84
2024/04/20 06:07:39;;;;;;;;;;;7.60;99.90;;;7.92;75.30;100588.59;5524985;26;20387;-85
2024/04/20 06:10:11;;;;;;;;;;;7.70;99.90;;;7.95;75.65;100587.38;5506929;25;19928;-84
2024/04/20 06:12:42;;;;;;;;;;;7.70;99.90;;;7.97;75.17;100590.66;5527059;26;19927;-84
2024/04/20 06:15:11;;;;;;;;;;;7.70;99.90;;;7.97;75.06;100591.50;5529735;26;19938;-81
2024/04/20 06:17:40;;;;;;;;;;;7.80;99.90;;;7.96;74.85;100599.66;5535729;26;19927;-82
2024/04/20 06:20:09;;;;;;;;;;;7.70;99.90;;;7.92;74.55;100603.69;5529861;25;19964;-84
2024/04/20 06:22:38;;;;;;;;;;;7.70;99.90;;;7.92;75.03;100606.34;5520384;26;19936;-84
2024/04/20 06:25:08;;;;;;;;;;;7.70;99.90;;;7.89;75.09;100609.38;5533332;26;19939;-83
2024/04/20 06:27:37;;;;;;;;;;;7.60;99.90;;;7.87;75.11;100622.84;5526624;25;19974;-81
2024/04/20 06:30:10;;;;;;;;;;;7.60;99.90;;;7.84;74.66;100619.75;5532606;26;19933;-82
2024/04/20 06:32:39;;;;;;;;;;;7.60;99.90;;;7.82;74.71;100621.78;5531388;26;20271;-83
2024/04/20 06:35:08;;;;;;;;;;;7.50;99.90;;;7.83;74.94;100626.91;5529225;25;19935;-83
2024/04/20 06:37:37;;;;;;;;;;;7.50;99.90;;;7.85;75.52;100632.00;5530176;26;20597;-82
2024/04/20 06:40:09;;;;;;;;;;;7.60;99.90;;;7.88;75.39;100621.84;5527741;26;19934;-82
2024/04/20 06:42:39;;;;;;;;;;;7.60;99.90;;;7.91;75.37;100632.09;5535658;26;19927;-84
2024/04/20 06:45:10;;;;;;;;;;;7.70;99.90;;;7.93;75.84;100629.25;5515840;26;19928;-84
2024/04/20 06:47:39;;;;;;;;;;;7.70;99.90;;;7.94;75.35;100626.38;5534170;26;20021;-85
2024/04/20 06:50:09;;;;;;;;;;;7.70;99.90;;;7.95;75.82;100635.16;5514537;26;19935;-84
2024/04/20 06:52:38;;;;;;;;;;;7.70;99.90;;;7.94;75.80;100644.16;5528311;26;19993;-82
2024/04/20 06:55:08;;;;;;;;;;;7.70;99.90;;;7.94;75.57;100649.47;5507854;26;19972;-84
2024/04/20 06:57:36;;;;;;;;;;;7.70;99.90;;;7.92;75.34;100646.19;5515980;25;19932;-83
2024/04/20 07:00:07;;;;;;;;;;;7.60;99.90;;;7.92;75.64;100652.31;5530366;25;19928;-83
2024/04/20 07:02:39;;;;;;;;;;;7.70;99.90;;;7.94;75.90;100660.09;5528840;26;19927;-84
2024/04/20 07:05:08;;;;;;;;;;;7.70;99.90;;;7.96;75.74;100663.41;5525161;25;19936;-81
2024/04/20 07:07:37;;;;;;;;;;;7.70;99.90;;;7.87;75.16;100668.00;5512419;26;19935;-82
2024/04/20 07:10:06;;;;;;;;;;;7.60;99.90;;;7.85;75.74;100667.34;5526528;25;19927;-82
2024/04/20 07:12:35;;;;;;;;;;;7.60;99.90;;;7.83;75.68;100664.06;5533662;26;19931;-82
2024/04/20 07:15:04;;;;;;;;;;;7.60;99.90;;;7.86;75.21;100676.16;5533195;25;19939;-82
2024/04/20 07:17:32;;;;;;;;;;;7.60;99.90;;;7.89;75.22;100679.25;5520501;25;20398;-82
2024/04/20 07:20:04;;;;;;;;;;;7.70;99.90;;;7.94;74.92;100676.84;5530473;26;19928;-82
2024/04/20 07:22:33;;;;;;;;;;;7.70;99.90;;;7.98;74.85;100687.91;5533093;26;19927;-82
2024/04/20 07:25:02;;;;;;;;;;;7.70;99.90;;;8.01;74.89;100687.56;5532406;25;19931;-84
2024/04/20 07:27:31;;;;;;;;;;;7.80;99.90;;;8.04;74.98;100686.34;5525068;26;19976;-84
2024/04/20 07:30:00;;;;;;;;;;;7.80;99.90;;;8.06;75.05;100690.47;5517133;26;19927;-84
2024/04/20 07:32:28;;;;;;;;;;;7.80;99.90;;;8.02;75.12;100686.53;5519751;25;19928;-83
2024/04/20 07:34:57;;;;;;;;;;;7.80;99.90;;;8.07;75.80;100701.91;5531535;25;19927;-83
2024/04/20 07:37:29;;;;;;;;;;;7.80;99.90;;;8.04;75.45;100703.09;5532043;25;19937;-83
2024/04/20 07:39:57;;;;;;;;;;;7.80;99.90;;;8.09;75.84;100708.66;5530829;25;19934;-83
2024/04/20 07:42:28;;;;;;;;;;;7.80;99.90;;;8.10;75.74;100712.13;5530622;25;19927;-83
2024/04/20 07:45:00;;;;;;;;;;;7.90;99.90;;;8.13;75.91;100706.44;5504239;26;19927;-83
2024/04/20 07:47:29;;;;;;;;;;;7.90;99.90;;;8.10;75.78;100705.00;5522759;26;19928;-83
2024/04/20 07:49:59;;;;;;;;;;;7.90;99.90;;;8.09;75.74;100708.66;5519076;26;19928;-83
2024/04/20 07:52:30;;;;;;;;;;;7.90;99.90;;;8.11;76.06;100719.13;5532497;26;20387;-83
2024/04/20 07:54:59;;;;;;;;;;;7.90;99.90;;;8.12;75.82;100723.41;5532260;25;19938;-83
2024/04/20 07:57:28;;;;;;;;;;;8.00;99.90;;;8.16;76.17;100720.19;5532385;25;19934;-83
2024/04/20 07:59:57;;;;;;;;;;;8.00;99.90;;;8.23;76.23;100731.69;5512798;26;20361;-81
2024/04/20 08:02:26;;;;;;;;;;;8.00;99.90;;;8.13;75.57;100728.53;5525155;26;19927;-80
2024/04/20 08:04:55;;;;;;;;;;;7.90;99.90;;;8.15;75.75;100731.84;5503808;26;19943;-82
2024/04/20 08:07:24;;;;;;;;;;;8.00;99.90;;;8.16;75.80;100735.31;5533433;25;19932;-82
2024/04/20 08:09:56;;;;;;;;;;;8.00;99.90;;;8.17;75.90;100739.59;5533078;25;19928;-82
2024/04/20 08:12:24;;;;;;;;;;;8.00;99.90;;;8.19;75.60;100742.88;5533881;25;19927;-82
2024/04/20 08:14:53;;;;;;;;;;;8.00;99.90;;;8.13;75.68;100747.13;5506300;26;19934;-82
2024/04/20 08:17:22;;;;;;;;;;;8.00;99.90;;;8.11;76.06;100749.16;5522295;25;19931;-82
2024/04/20 08:19:51;;;;;;;;;;;7.90;99.90;;;8.10;75.23;100749.31;5532514;26;19928;-82
2024/04/20 08:22:20;;;;;;;;;;;7.90;99.90;;;8.02;75.38;100760.06;5531712;26;19933;-82
2024/04/20 08:24:49;;;;;;;;;;;7.80;99.90;;;8.06;76.05;100766.66;5533105;26;20267;-83
2024/04/20 08:27:20;;;;;;;;;;;7.80;99.90;;;8.07;75.11;100770.97;5534023;26;19928;-82
2024/04/20 08:29:49;;;;;;;;;;;7.80;99.90;;;8.04;75.13;100771.31;5533075;26;19934;-82
2024/04/20 08:32:18;;;;;;;;;;;7.80;99.90;;;8.02;74.86;100770.69;5532914;25;19959;-82
2024/04/20 08:34:47;;;;;;;;;;;7.80;99.90;;;8.00;74.94;100781.50;5528998;26;19939;-81
2024/04/20 08:37:17;;;;;;;;;;;7.80;99.90;;;8.04;74.88;100777.47;5531542;26;20434;-82
2024/04/20 08:39:46;;;;;;;;;;;7.80;99.90;;;8.00;74.55;100785.00;5533882;26;19928;-83
2024/04/20 08:42:29;;;;;;;;;;;7.80;99.90;;;7.99;74.47;100788.63;5530451;26;19985;-83
2024/04/20 08:44:58;;;;;;;;;;;7.80;99.90;;;8.00;75.39;100792.13;5501188;26;19959;-82
2024/04/20 08:47:27;;;;;;;;;;;7.80;99.90;;;7.98;74.55;100792.31;5530810;26;19935;-82
2024/04/20 08:49:56;;;;;;;;;;;7.80;99.90;;;7.96;74.84;100804.16;5521960;26;19927;-83
2024/04/20 08:52:29;;;;;;;;;;;7.80;99.90;;;7.99;74.71;100801.09;5511666;26;19927;-83
2024/04/20 08:54:59;;;;;;;;;;;7.80;99.90;;;8.00;74.71;100808.91;5514192;25;19928;-82
2024/04/20 08:57:35;;;;;;;;;;;7.80;99.90;;;8.09;75.65;100808.78;5515850;26;20279;-83
2024/04/20 09:00:04;;;;;;;;;;;7.80;99.90;;;8.14;75.82;100809.84;5520783;26;20277;-83
2024/04/20 09:02:35;;;;;;;;;;;7.90;99.90;;;8.18;75.78;100824.41;5531846;25;19959;-83
2024/04/20 09:05:05;;;;;;;;;;;8.00;99.90;;;8.18;75.64;100826.25;5532930;25;19935;-83
2024/04/20 09:07:35;;;;;;;;;;;8.00;99.90;;;8.17;74.73;100827.28;5532418;26;19931;-83
2024/04/20 09:10:04;;;;;;;;;;;8.00;99.90;;;8.07;74.32;100830.22;5529769;26;19928;-82
2024/04/20 09:12:35;;;;;;;;;;;7.90;99.90;;;8.07;74.54;100824.09;5531361;26;19932;-83
2024/04/20 09:15:08;;;;;;;;;;;7.90;99.90;;;8.04;74.43;100830.59;5531983;25;19933;-83
2024/04/20 09:17:36;;;;;;;;;;;7.80;99.90;;;8.08;74.74;100834.53;5517711;25;19934;-83
2024/04/20 09:20:06;;;;;;;;;;;7.90;99.90;;;8.17;75.65;100833.41;5520047;26;19927;-83
2024/04/20 09:22:35;;;;;;;;;;;8.00;99.90;;;8.25;75.60;100832.50;5531194;26;19939;-83
2024/04/20 09:25:05;;;;;;;;;;;8.10;99.90;;;8.31;75.15;100830.91;5531657;26;19955;-83
2024/04/20 09:27:36;;;;;;;;;;;8.10;99.90;;;8.42;76.11;100830.44;5527716;25;19963;-83
2024/04/20 09:30:06;;;;;;;;;;;8.30;99.90;;;8.45;75.87;100832.75;5532902;25;19927;-83
2024/04/20 09:32:35;;;;;;;;;;;8.30;99.90;;;8.53;75.72;100829.94;5527115;26;19931;-83
2024/04/20 09:35:06;;;;;;;;;;;8.40;99.90;;;8.61;75.53;100834.31;5525138;25;19927;-83
2024/04/20 09:37:35;;;;;;;;;;;8.50;99.90;;;8.69;75.81;100829.72;5532200;26;19996;-83
2024/04/20 09:40:04;;;;;;;;;;;8.60;99.90;;;8.66;74.70;100829.25;5532752;26;19932;-83
2024/04/20 09:42:33;;;;;;;;;;;8.60;99.90;;;8.64;73.81;100832.13;5531359;25;19935;-83
2024/04/20 09:45:05;;;;;;;;;;;8.60;99.90;;;8.61;73.84;100831.66;5531818;25;19928;-83
2024/04/20 09:47:36;;;;;;;;;;;8.60;99.90;;;8.76;75.34;100832.41;5516340;26;19932;-83
2024/04/20 09:50:10;;;;;;;;;;;8.70;99.90;;;8.83;74.26;100824.50;5519721;26;19931;-83
2024/04/20 09:52:46;;;;;;;;;;;8.90;99.90;;;8.84;73.18;100821.66;5532565;25;19934;-83
2024/04/20 09:55:19;;;;;;;;;;;8.90;99.90;;;8.90;72.63;100822.72;5533160;25;19956;-83
2024/04/20 09:57:48;;;;;;;;;;;8.90;99.90;;;8.96;73.72;100821.97;5530647;26;19927;-83
2024/04/20 10:00:22;;;;;;;;;;;9.10;99.90;;;9.01;74.18;100816.88;5530094;26;19934;-83
2024/04/20 10:02:51;;;;;;;;;;;9.30;99.90;;;9.09;75.00;100819.41;5511326;25;19927;-83
2024/04/20 10:05:21;;;;;;;;;;;9.20;99.90;;;9.10;73.70;100815.72;5516551;25;19928;-83
2024/04/20 10:07:52;;;;;;;;;;;9.20;99.90;;;9.02;71.88;100821.19;5531138;25;20053;-83
2024/04/20 10:10:22;;;;;;;;;;;9.10;99.90;;;9.07;72.86;100826.75;5535426;25;20294;-82
2024/04/20 10:12:51;;;;;;;;;;;9.00;99.90;;;9.02;72.91;100819.34;5528662;26;19927;-83
2024/04/20 10:15:23;;;;;;;;;;;9.00;99.90;;;8.99;72.44;100813.59;5530262;26;19931;-83
2024/04/20 10:17:52;;;;;;;;;;;9.00;99.90;;;9.01;72.48;100815.03;5528400;25;19938;-83
2024/04/20 10:20:20;;;;;;;;;;;9.00;99.90;;;9.02;72.89;100829.16;5530197;25;19928;-83
2024/04/20 10:22:46;;;;;;;;;;;9.00;99.90;;;8.99;72.92;100837.56;5530519;25;19927;-83
2024/04/20 10:25:17;;;;;;;;;;;8.90;99.90;;;8.99;73.08;100830.38;5530528;25;19996;-82
2024/04/20 10:27:52;;;;;;;;;;;8.90;99.90;;;9.02;72.27;100823.84;5545233;25;19939;-83
2024/04/20 10:30:25;;;;;;;;;;;9.00;99.90;;;9.08;72.49;100823.09;5529376;25;20447;-83
2024/04/20 10:33:05;;;;;;;;;;;9.00;99.90;;;9.15;72.19;100820.47;5530070;25;19953;-83
2024/04/20 10:35:34;;;;;;;;;;;9.20;99.90;;;9.22;71.03;100816.00;5527486;26;19928;-83
2024/04/20 10:38:04;;;;;;;;;;;9.30;99.90;;;9.28;69.88;100816.09;5529218;25;19934;-82
2024/04/20 10:40:34;;;;;;;;;;;9.40;99.90;;;9.34;69.57;100816.31;5529950;25;19934;-83
2024/04/20 10:43:13;;;;;;;;;;;9.40;99.90;;;9.32;67.24;100823.66;5529363;26;19959;-83
2024/04/20 10:45:44;;;;;;;;;;;9.40;99.90;;;9.32;69.10;100828.97;5528945;25;20271;-83
2024/04/20 10:48:16;;;;;;;;;;;9.40;99.90;;;9.23;69.63;100823.81;5512333;25;19936;-82
2024/04/20 10:50:45;;;;;;;;;;;9.60;99.90;;;9.26;71.04;100834.06;5526643;26;19995;-82
2024/04/20 10:53:18;;;;;;;;;;;9.30;99.90;;;9.28;71.00;100828.56;5529428;26;19927;-82
2024/04/20 10:55:47;;;;;;;;;;;9.30;99.90;;;9.39;72.21;100822.69;5530171;25;20379;-83
2024/04/20 10:58:16;;;;;;;;;;;9.40;99.90;;;9.43;71.06;100817.81;5530582;26;20007;-83
2024/04/20 11:00:47;;;;;;;;;;;9.50;99.90;;;9.57;69.82;100822.22;5532810;25;19993;-82
2024/04/20 11:03:16;;;;;;;;;;;9.60;99.90;;;9.74;71.93;100828.84;5533693;26;19927;-82
2024/04/20 11:05:54;;;;;;;;;;;9.80;99.90;;;9.52;66.97;100851.25;5549851;25;19927;-82
2024/04/20 11:08:23;;;;;;;;;;;9.70;99.90;;;9.21;66.81;100855.13;5533671;26;19935;-83
2024/04/20 11:10:58;;;;;;;;;;;9.30;99.90;;;9.07;68.63;100860.53;5502621;26;19927;-82
2024/04/20 11:13:27;;;;;;;;;;;9.10;99.90;;;8.97;69.44;100874.13;5504400;25;20001;-82
2024/04/20 11:15:58;;;;;;;;;;;8.90;99.90;;;8.96;71.18;100877.81;5519371;26;19927;-82
2024/04/20 11:18:28;;;;;;;;;;;8.80;99.90;;;8.88;71.56;100869.97;5530474;26;19928;-82
2024/04/20 11:20:57;;;;;;;;;;;8.70;99.90;;;8.85;71.02;100854.41;5534301;26;19943;-83
2024/04/20 11:23:28;;;;;;;;;;;8.70;99.90;;;8.84;70.36;100856.25;5533771;25;20390;-83
2024/04/20 11:25:58;;;;;;;;;;;8.60;99.90;;;8.92;71.35;100860.59;5533603;25;20390;-82
2024/04/20 11:28:28;;;;;;;;;;;8.70;99.90;;;9.02;72.48;100861.09;5534478;25;19963;-84
2024/04/20 11:31:01;;;;;;;;;;;8.80;99.90;;;9.11;72.85;100859.94;5528208;25;19935;-82
2024/04/20 11:33:30;;;;;;;;;;;9.00;99.90;;;9.20;72.26;100864.13;5513868;26;19934;-83
2024/04/20 11:36:04;;;;;;;;;;;9.10;99.90;;;9.18;72.21;100850.19;5533438;25;19935;-82